sensor_id;sensor_type;location;lat;lon;timestamp;pressure;altitude;pressure_sealevel;temperature;humidity
46241;BME280;31961;52.416;-0.732;2022-12-07T00:00:47;101514.56;;;-1.29;100.00
46241;BME280;31961;52.416;-0.732;2022-12-07T00:03:14;101514.54;;;-0.03;100.00
46241;BME280;31961;52.416;-0.732;2022-12-07T00:05:40;101512.37;;;-0.68;100.00
46241;BME280;31961;52.416;-0.732;2022-12-07T00:08:08;101510.70;;;-0.21;100.00
46241;BME280;31961;52.416;-0.732;2022-12-07T00:10:35;101508.59;;;-0.72;100.00
46241;BME280;31961;52.416;-0.732;2022-12-07T00:13:02;101502.37;;;-0.68;100.00
46241;BME280;31961;52.416;-0.732;2022-12-07T00:15:29;101506.39;;;-0.44;100.00
46241;BME280;31961;52.416;-0.732;2022-12-07T00:17:56;101506.69;;;-0.07;100.00
46241;BME280;31961;52.416;-0.732;2022-12-07T00:20:24;101504.49;;;-0.52;100.00
46241;BME280;31961;52.416;-0.732;2022-12-07T00:22:51;101502.53;;;-0.84;100.00
46241;BME280;31961;52.416;-0.732;2022-12-07T00:25:18;101505.35;;;-0.65;100.00
46241;BME280;31961;52.416;-0.732;2022-12-07T00:27:45;101506.98;;;-0.45;100.00
46241;BME280;31961;52.416;-0.732;2022-12-07T00:30:13;101502.20;;;-0.57;100.00
46241;BME280;31961;52.416;-0.732;2022-12-07T00:32:39;101500.14;;;-0.57;100.00
46241;BME280;31961;52.416;-0.732;2022-12-07T00:35:07;101495.60;;;-0.32;100.00
46241;BME280;31961;52.416;-0.732;2022-12-07T00:37:35;101495.67;;;-0.56;100.00
46241;BME280;31961;52.416;-0.732;2022-12-07T00:40:02;101497.44;;;-1.16;100.00
46241;BME280;31961;52.416;-0.732;2022-12-07T00:42:29;101496.44;;;-1.26;100.00
46241;BME280;31961;52.416;-0.732;2022-12-07T00:44:57;101498.99;;;-0.44;100.00
46241;BME280;31961;52.416;-0.732;2022-12-07T00:47:24;101496.64;;;-0.58;100.00
46241;BME280;31961;52.416;-0.732;2022-12-07T00:49:51;101497.01;;;-0.83;100.00
46241;BME280;31961;52.416;-0.732;2022-12-07T00:52:18;101489.98;;;-0.50;100.00
46241;BME280;31961;52.416;-0.732;2022-12-07T00:54:45;101488.99;;;-0.39;100.00
46241;BME280;31961;52.416;-0.732;2022-12-07T00:57:12;101491.01;;;-0.58;100.00
46241;BME280;31961;52.416;-0.732;2022-12-07T00:59:39;101494.92;;;-0.41;100.00
46241;BME280;31961;52.416;-0.732;2022-12-07T01:02:06;101494.67;;;-0.50;100.00
46241;BME280;31961;52.416;-0.732;2022-12-07T01:04:34;101491.11;;;-0.55;100.00
46241;BME280;31961;52.416;-0.732;2022-12-07T01:07:01;101494.24;;;-0.53;100.00
46241;BME280;31961;52.416;-0.732;2022-12-07T01:09:28;101485.39;;;-1.26;100.00
46241;BME280;31961;52.416;-0.732;2022-12-07T01:11:56;101483.50;;;-0.52;100.00
46241;BME280;31961;52.416;-0.732;2022-12-07T01:14:23;101484.97;;;-0.97;100.00
46241;BME280;31961;52.416;-0.732;2022-12-07T01:16:49;101483.86;;;-0.84;100.00
46241;BME280;31961;52.416;-0.732;2022-12-07T01:19:17;101481.29;;;-0.34;100.00
46241;BME280;31961;52.416;-0.732;2022-12-07T01:21:44;101482.89;;;-0.53;100.00
46241;BME280;31961;52.416;-0.732;2022-12-07T01:24:11;101484.91;;;-0.34;100.00
46241;BME280;31961;52.416;-0.732;2022-12-07T01:26:39;101486.46;;;-0.66;100.00
46241;BME280;31961;52.416;-0.732;2022-12-07T01:29:06;101483.15;;;-0.21;100.00
46241;BME280;31961;52.416;-0.732;2022-12-07T01:31:34;101489.25;;;-1.04;100.00
46241;BME280;31961;52.416;-0.732;2022-12-07T01:34:01;101492.40;;;-0.66;100.00
46241;BME280;31961;52.416;-0.732;2022-12-07T01:36:30;101495.84;;;-1.32;100.00
46241;BME280;31961;52.416;-0.732;2022-12-07T01:38:59;101497.11;;;-0.75;100.00
46241;BME280;31961;52.416;-0.732;2022-12-07T01:41:30;101498.08;;;-0.30;100.00
46241;BME280;31961;52.416;-0.732;2022-12-07T01:44:16;101496.03;;;-0.45;100.00
46241;BME280;31961;52.416;-0.732;2022-12-07T01:46:45;101496.24;;;-0.78;100.00
46241;BME280;31961;52.416;-0.732;2022-12-07T01:49:18;101489.34;;;-0.69;100.00
46241;BME280;31961;52.416;-0.732;2022-12-07T01:51:49;101490.05;;;0.22;100.00
46241;BME280;31961;52.416;-0.732;2022-12-07T01:54:20;101487.02;;;0.04;100.00
46241;BME280;31961;52.416;-0.732;2022-12-07T01:56:50;101488.86;;;0.13;100.00
46241;BME280;31961;52.416;-0.732;2022-12-07T01:59:20;101492.99;;;-0.04;100.00
46241;BME280;31961;52.416;-0.732;2022-12-07T02:01:49;101489.24;;;-0.21;100.00
46241;BME280;31961;52.416;-0.732;2022-12-07T02:04:16;101487.22;;;0.58;100.00
46241;BME280;31961;52.416;-0.732;2022-12-07T02:06:44;101484.04;;;0.59;100.00
46241;BME280;31961;52.416;-0.732;2022-12-07T02:09:13;101484.07;;;0.43;100.00
46241;BME280;31961;52.416;-0.732;2022-12-07T02:11:41;101489.03;;;0.20;100.00
46241;BME280;31961;52.416;-0.732;2022-12-07T02:14:08;101489.57;;;0.07;100.00
46241;BME280;31961;52.416;-0.732;2022-12-07T02:16:44;101487.22;;;0.03;100.00
46241;BME280;31961;52.416;-0.732;2022-12-07T02:19:29;101485.54;;;0.60;100.00
46241;BME280;31961;52.416;-0.732;2022-12-07T02:22:18;101484.84;;;0.98;100.00
46241;BME280;31961;52.416;-0.732;2022-12-07T02:24:54;101489.20;;;-0.10;100.00
46241;BME280;31961;52.416;-0.732;2022-12-07T02:27:39;101489.82;;;-0.28;100.00
46241;BME280;31961;52.416;-0.732;2022-12-07T02:30:10;101485.78;;;0.33;100.00
46241;BME280;31961;52.416;-0.732;2022-12-07T02:32:44;101483.83;;;0.55;100.00
46241;BME280;31961;52.416;-0.732;2022-12-07T02:35:19;101482.29;;;1.19;100.00
46241;BME280;31961;52.416;-0.732;2022-12-07T02:37:55;101478.87;;;0.28;100.00
46241;BME280;31961;52.416;-0.732;2022-12-07T02:40:31;101475.11;;;0.38;100.00
46241;BME280;31961;52.416;-0.732;2022-12-07T02:43:03;101473.16;;;1.01;100.00
46241;BME280;31961;52.416;-0.732;2022-12-07T02:45:33;101473.02;;;1.44;100.00
46241;BME280;31961;52.416;-0.732;2022-12-07T02:48:03;101468.75;;;1.65;100.00
46241;BME280;31961;52.416;-0.732;2022-12-07T02:50:32;101463.53;;;1.64;100.00
46241;BME280;31961;52.416;-0.732;2022-12-07T02:52:59;101469.53;;;1.20;100.00
46241;BME280;31961;52.416;-0.732;2022-12-07T02:55:30;101468.22;;;1.17;100.00
46241;BME280;31961;52.416;-0.732;2022-12-07T02:58:12;101467.25;;;1.23;100.00
46241;BME280;31961;52.416;-0.732;2022-12-07T03:00:52;101465.89;;;1.73;100.00
46241;BME280;31961;52.416;-0.732;2022-12-07T03:03:22;101463.51;;;1.64;100.00
46241;BME280;31961;52.416;-0.732;2022-12-07T03:06:00;101459.82;;;2.02;100.00
46241;BME280;31961;52.416;-0.732;2022-12-07T03:08:38;101459.17;;;1.06;100.00
46241;BME280;31961;52.416;-0.732;2022-12-07T03:11:13;101449.31;;;0.80;100.00
46241;BME280;31961;52.416;-0.732;2022-12-07T03:13:45;101452.80;;;0.88;100.00
46241;BME280;31961;52.416;-0.732;2022-12-07T03:16:16;101454.39;;;1.25;100.00
46241;BME280;31961;52.416;-0.732;2022-12-07T03:18:48;101451.54;;;1.21;100.00
46241;BME280;31961;52.416;-0.732;2022-12-07T03:21:20;101448.32;;;0.60;100.00
46241;BME280;31961;52.416;-0.732;2022-12-07T03:23:53;101444.15;;;-0.22;100.00
46241;BME280;31961;52.416;-0.732;2022-12-07T03:26:23;101443.19;;;0.02;100.00
46241;BME280;31961;52.416;-0.732;2022-12-07T03:28:55;101439.33;;;0.48;100.00
46241;BME280;31961;52.416;-0.732;2022-12-07T03:31:29;101436.18;;;-0.08;100.00
46241;BME280;31961;52.416;-0.732;2022-12-07T03:34:02;101435.46;;;-0.52;100.00
46241;BME280;31961;52.416;-0.732;2022-12-07T03:36:38;101430.54;;;-0.63;100.00
46241;BME280;31961;52.416;-0.732;2022-12-07T03:39:13;101428.95;;;-1.47;100.00
46241;BME280;31961;52.416;-0.732;2022-12-07T03:41:44;101430.23;;;-1.11;100.00
46241;BME280;31961;52.416;-0.732;2022-12-07T03:44:12;101425.92;;;-0.40;100.00
46241;BME280;31961;52.416;-0.732;2022-12-07T03:46:44;101422.70;;;-0.50;100.00
46241;BME280;31961;52.416;-0.732;2022-12-07T03:49:21;101429.18;;;-1.29;100.00
46241;BME280;31961;52.416;-0.732;2022-12-07T03:51:55;101428.05;;;-1.51;100.00
46241;BME280;31961;52.416;-0.732;2022-12-07T03:54:28;101428.48;;;-1.48;100.00
46241;BME280;31961;52.416;-0.732;2022-12-07T03:56:58;101426.74;;;-2.05;100.00
46241;BME280;31961;52.416;-0.732;2022-12-07T03:59:26;101423.22;;;-1.76;100.00
46241;BME280;31961;52.416;-0.732;2022-12-07T04:01:56;101423.31;;;-1.38;100.00
46241;BME280;31961;52.416;-0.732;2022-12-07T04:04:25;101428.37;;;-1.59;100.00
46241;BME280;31961;52.416;-0.732;2022-12-07T04:06:52;101427.39;;;-1.25;100.00
46241;BME280;31961;52.416;-0.732;2022-12-07T04:09:21;101419.54;;;-1.37;100.00
46241;BME280;31961;52.416;-0.732;2022-12-07T04:11:48;101422.24;;;-0.97;100.00
46241;BME280;31961;52.416;-0.732;2022-12-07T04:14:16;101422.53;;;-0.78;100.00
46241;BME280;31961;52.416;-0.732;2022-12-07T04:16:44;101426.99;;;-1.15;100.00
46241;BME280;31961;52.416;-0.732;2022-12-07T04:19:11;101427.04;;;-0.89;100.00
46241;BME280;31961;52.416;-0.732;2022-12-07T04:21:39;101429.05;;;-0.47;100.00
46241;BME280;31961;52.416;-0.732;2022-12-07T04:24:07;101424.64;;;-0.64;100.00
46241;BME280;31961;52.416;-0.732;2022-12-07T04:26:35;101424.70;;;-0.60;100.00
46241;BME280;31961;52.416;-0.732;2022-12-07T04:29:03;101419.16;;;-0.77;100.00
46241;BME280;31961;52.416;-0.732;2022-12-07T04:31:30;101423.46;;;-0.66;100.00
46241;BME280;31961;52.416;-0.732;2022-12-07T04:33:57;101421.53;;;-1.37;100.00
46241;BME280;31961;52.416;-0.732;2022-12-07T04:36:24;101423.05;;;-0.83;100.00
46241;BME280;31961;52.416;-0.732;2022-12-07T04:38:53;101426.67;;;-1.75;100.00
46241;BME280;31961;52.416;-0.732;2022-12-07T04:41:22;101420.34;;;-0.87;100.00
46241;BME280;31961;52.416;-0.732;2022-12-07T04:43:49;101423.27;;;-0.49;100.00
46241;BME280;31961;52.416;-0.732;2022-12-07T04:46:16;101424.65;;;-1.48;100.00
46241;BME280;31961;52.416;-0.732;2022-12-07T04:48:43;101420.98;;;-1.88;100.00
46241;BME280;31961;52.416;-0.732;2022-12-07T04:51:10;101425.69;;;-1.39;100.00
46241;BME280;31961;52.416;-0.732;2022-12-07T04:53:37;101419.11;;;-0.31;100.00
46241;BME280;31961;52.416;-0.732;2022-12-07T04:56:04;101417.57;;;-0.93;100.00
46241;BME280;31961;52.416;-0.732;2022-12-07T04:58:32;101413.74;;;-0.34;100.00
46241;BME280;31961;52.416;-0.732;2022-12-07T05:00:59;101407.54;;;-0.60;100.00
46241;BME280;31961;52.416;-0.732;2022-12-07T05:03:25;101411.28;;;-0.96;100.00
46241;BME280;31961;52.416;-0.732;2022-12-07T05:05:52;101402.70;;;-0.47;100.00
46241;BME280;31961;52.416;-0.732;2022-12-07T05:08:19;101403.71;;;-0.84;100.00
46241;BME280;31961;52.416;-0.732;2022-12-07T05:10:48;101398.35;;;0.22;100.00
46241;BME280;31961;52.416;-0.732;2022-12-07T05:13:15;101395.10;;;-0.40;100.00
46241;BME280;31961;52.416;-0.732;2022-12-07T05:15:43;101393.92;;;-1.05;100.00
46241;BME280;31961;52.416;-0.732;2022-12-07T05:18:11;101399.89;;;-0.39;100.00
46241;BME280;31961;52.416;-0.732;2022-12-07T05:20:39;101401.45;;;-0.80;100.00
46241;BME280;31961;52.416;-0.732;2022-12-07T05:23:06;101394.58;;;-1.32;100.00
46241;BME280;31961;52.416;-0.732;2022-12-07T05:25:34;101398.63;;;-1.72;100.00
46241;BME280;31961;52.416;-0.732;2022-12-07T05:28:02;101398.21;;;-1.71;100.00
46241;BME280;31961;52.416;-0.732;2022-12-07T05:30:31;101399.76;;;-1.16;100.00
46241;BME280;31961;52.416;-0.732;2022-12-07T05:32:58;101402.96;;;-2.03;100.00
46241;BME280;31961;52.416;-0.732;2022-12-07T05:35:25;101401.75;;;-1.70;100.00
46241;BME280;31961;52.416;-0.732;2022-12-07T05:37:53;101406.40;;;-1.46;100.00
46241;BME280;31961;52.416;-0.732;2022-12-07T05:40:20;101404.75;;;-1.80;100.00
46241;BME280;31961;52.416;-0.732;2022-12-07T05:42:47;101404.97;;;-1.66;100.00
46241;BME280;31961;52.416;-0.732;2022-12-07T05:45:15;101408.17;;;-1.37;100.00
46241;BME280;31961;52.416;-0.732;2022-12-07T05:47:42;101408.55;;;-1.37;100.00
46241;BME280;31961;52.416;-0.732;2022-12-07T05:50:09;101404.05;;;-1.05;100.00
46241;BME280;31961;52.416;-0.732;2022-12-07T05:52:36;101401.32;;;-0.89;100.00
46241;BME280;31961;52.416;-0.732;2022-12-07T05:55:04;101393.69;;;-0.17;100.00
46241;BME280;31961;52.416;-0.732;2022-12-07T05:57:31;101402.22;;;-1.27;100.00
46241;BME280;31961;52.416;-0.732;2022-12-07T05:59:58;101394.12;;;-0.98;100.00
46241;BME280;31961;52.416;-0.732;2022-12-07T06:02:25;101394.32;;;-0.73;100.00
46241;BME280;31961;52.416;-0.732;2022-12-07T06:04:51;101392.98;;;-0.95;100.00
46241;BME280;31961;52.416;-0.732;2022-12-07T06:07:18;101395.18;;;-1.25;100.00
46241;BME280;31961;52.416;-0.732;2022-12-07T06:09:45;101395.85;;;-1.78;100.00
46241;BME280;31961;52.416;-0.732;2022-12-07T06:12:13;101393.49;;;-1.48;100.00
46241;BME280;31961;52.416;-0.732;2022-12-07T06:14:40;101396.15;;;-1.34;100.00
46241;BME280;31961;52.416;-0.732;2022-12-07T06:17:08;101400.08;;;-2.09;100.00
46241;BME280;31961;52.416;-0.732;2022-12-07T06:19:35;101398.08;;;-1.85;100.00
46241;BME280;31961;52.416;-0.732;2022-12-07T06:22:03;101399.23;;;-1.99;100.00
46241;BME280;31961;52.416;-0.732;2022-12-07T06:24:30;101405.54;;;-2.56;100.00
46241;BME280;31961;52.416;-0.732;2022-12-07T06:26:58;101399.09;;;-1.92;100.00
46241;BME280;31961;52.416;-0.732;2022-12-07T06:29:25;101396.11;;;-2.09;100.00
46241;BME280;31961;52.416;-0.732;2022-12-07T06:31:52;101395.57;;;-2.12;100.00
46241;BME280;31961;52.416;-0.732;2022-12-07T06:34:22;101395.02;;;-1.32;100.00
46241;BME280;31961;52.416;-0.732;2022-12-07T06:36:50;101390.25;;;-2.01;100.00
46241;BME280;31961;52.416;-0.732;2022-12-07T06:39:18;101382.58;;;-1.54;100.00
46241;BME280;31961;52.416;-0.732;2022-12-07T06:41:45;101379.30;;;-2.08;100.00
46241;BME280;31961;52.416;-0.732;2022-12-07T06:44:12;101383.67;;;-1.80;100.00
46241;BME280;31961;52.416;-0.732;2022-12-07T06:46:39;101385.10;;;-1.50;100.00
46241;BME280;31961;52.416;-0.732;2022-12-07T06:49:07;101380.50;;;-2.05;100.00
46241;BME280;31961;52.416;-0.732;2022-12-07T06:51:35;101381.44;;;-2.05;100.00
46241;BME280;31961;52.416;-0.732;2022-12-07T06:54:02;101382.72;;;-1.68;100.00
46241;BME280;31961;52.416;-0.732;2022-12-07T06:56:30;101380.44;;;-2.07;100.00
46241;BME280;31961;52.416;-0.732;2022-12-07T06:58:57;101377.99;;;-1.26;100.00
46241;BME280;31961;52.416;-0.732;2022-12-07T07:01:24;101378.40;;;-1.92;100.00
46241;BME280;31961;52.416;-0.732;2022-12-07T07:03:52;101381.44;;;-1.81;100.00
46241;BME280;31961;52.416;-0.732;2022-12-07T07:06:19;101385.55;;;-1.19;100.00
46241;BME280;31961;52.416;-0.732;2022-12-07T07:08:46;101379.73;;;-1.18;100.00
46241;BME280;31961;52.416;-0.732;2022-12-07T07:11:13;101385.48;;;-1.40;100.00
46241;BME280;31961;52.416;-0.732;2022-12-07T07:13:40;101382.58;;;-1.81;100.00
46241;BME280;31961;52.416;-0.732;2022-12-07T07:16:08;101383.94;;;-2.10;100.00
46241;BME280;31961;52.416;-0.732;2022-12-07T07:18:35;101389.20;;;-2.55;100.00
46241;BME280;31961;52.416;-0.732;2022-12-07T07:21:03;101390.04;;;-2.72;100.00
46241;BME280;31961;52.416;-0.732;2022-12-07T07:23:31;101392.03;;;-2.10;100.00
46241;BME280;31961;52.416;-0.732;2022-12-07T07:25:58;101390.11;;;-2.34;100.00
46241;BME280;31961;52.416;-0.732;2022-12-07T07:28:25;101390.44;;;-2.72;100.00
46241;BME280;31961;52.416;-0.732;2022-12-07T07:30:52;101384.81;;;-2.36;100.00
46241;BME280;31961;52.416;-0.732;2022-12-07T07:33:19;101389.27;;;-2.20;100.00
46241;BME280;31961;52.416;-0.732;2022-12-07T07:35:46;101391.03;;;-1.80;100.00
46241;BME280;31961;52.416;-0.732;2022-12-07T07:38:13;101389.06;;;-1.90;100.00
46241;BME280;31961;52.416;-0.732;2022-12-07T07:40:40;101383.31;;;-1.85;100.00
46241;BME280;31961;52.416;-0.732;2022-12-07T07:43:07;101381.93;;;-2.19;100.00
46241;BME280;31961;52.416;-0.732;2022-12-07T07:45:34;101381.55;;;-2.12;100.00
46241;BME280;31961;52.416;-0.732;2022-12-07T07:48:01;101379.02;;;-1.83;100.00
46241;BME280;31961;52.416;-0.732;2022-12-07T07:50:28;101385.31;;;-2.30;100.00
46241;BME280;31961;52.416;-0.732;2022-12-07T07:52:57;101385.01;;;-1.39;100.00
46241;BME280;31961;52.416;-0.732;2022-12-07T07:55:25;101384.22;;;-1.17;100.00
46241;BME280;31961;52.416;-0.732;2022-12-07T07:57:51;101384.43;;;-1.61;100.00
46241;BME280;31961;52.416;-0.732;2022-12-07T08:00:19;101385.51;;;-1.67;100.00
46241;BME280;31961;52.416;-0.732;2022-12-07T08:02:46;101389.77;;;-1.47;100.00
46241;BME280;31961;52.416;-0.732;2022-12-07T08:05:13;101390.16;;;-1.43;100.00
46241;BME280;31961;52.416;-0.732;2022-12-07T08:07:40;101388.29;;;-1.72;100.00
46241;BME280;31961;52.416;-0.732;2022-12-07T08:10:10;101389.32;;;-1.59;100.00
46241;BME280;31961;52.416;-0.732;2022-12-07T08:12:39;101391.02;;;-2.23;100.00
46241;BME280;31961;52.416;-0.732;2022-12-07T08:15:07;101392.85;;;-2.33;100.00
46241;BME280;31961;52.416;-0.732;2022-12-07T08:17:34;101393.80;;;-2.31;100.00
46241;BME280;31961;52.416;-0.732;2022-12-07T08:20:01;101392.07;;;-2.08;100.00
46241;BME280;31961;52.416;-0.732;2022-12-07T08:22:28;101387.90;;;-1.53;100.00
46241;BME280;31961;52.416;-0.732;2022-12-07T08:24:55;101389.73;;;-1.45;100.00
46241;BME280;31961;52.416;-0.732;2022-12-07T08:27:23;101389.60;;;-1.82;100.00
46241;BME280;31961;52.416;-0.732;2022-12-07T08:29:49;101387.12;;;-2.17;100.00
46241;BME280;31961;52.416;-0.732;2022-12-07T08:32:16;101389.96;;;-1.94;100.00
46241;BME280;31961;52.416;-0.732;2022-12-07T08:34:43;101395.78;;;-1.22;100.00
46241;BME280;31961;52.416;-0.732;2022-12-07T08:37:11;101396.44;;;-2.12;100.00
46241;BME280;31961;52.416;-0.732;2022-12-07T08:39:38;101394.58;;;-2.38;100.00
46241;BME280;31961;52.416;-0.732;2022-12-07T08:42:05;101394.86;;;-2.70;100.00
46241;BME280;31961;52.416;-0.732;2022-12-07T08:44:32;101394.28;;;-2.50;100.00
46241;BME280;31961;52.416;-0.732;2022-12-07T08:47:03;101390.10;;;-2.39;100.00
46241;BME280;31961;52.416;-0.732;2022-12-07T08:49:37;101391.85;;;-2.76;100.00
46241;BME280;31961;52.416;-0.732;2022-12-07T08:52:06;101383.63;;;-2.41;100.00
46241;BME280;31961;52.416;-0.732;2022-12-07T08:54:34;101388.86;;;-2.79;100.00
46241;BME280;31961;52.416;-0.732;2022-12-07T08:57:03;101387.28;;;-3.02;100.00
46241;BME280;31961;52.416;-0.732;2022-12-07T08:59:32;101386.36;;;-2.57;100.00
46241;BME280;31961;52.416;-0.732;2022-12-07T09:02:00;101387.83;;;-2.70;100.00
46241;BME280;31961;52.416;-0.732;2022-12-07T09:04:27;101386.92;;;-3.14;100.00
46241;BME280;31961;52.416;-0.732;2022-12-07T09:06:55;101385.84;;;-2.84;100.00
46241;BME280;31961;52.416;-0.732;2022-12-07T09:09:22;101386.19;;;-2.90;100.00
46241;BME280;31961;52.416;-0.732;2022-12-07T09:11:49;101380.37;;;-2.08;100.00
46241;BME280;31961;52.416;-0.732;2022-12-07T09:14:16;101385.58;;;-2.43;100.00
46241;BME280;31961;52.416;-0.732;2022-12-07T09:16:44;101387.58;;;-2.40;100.00
46241;BME280;31961;52.416;-0.732;2022-12-07T09:19:11;101386.07;;;-1.92;100.00
46241;BME280;31961;52.416;-0.732;2022-12-07T09:21:38;101387.14;;;-2.17;100.00
46241;BME280;31961;52.416;-0.732;2022-12-07T09:24:05;101387.86;;;-1.74;100.00
46241;BME280;31961;52.416;-0.732;2022-12-07T09:26:33;101387.38;;;-1.64;100.00
46241;BME280;31961;52.416;-0.732;2022-12-07T09:29:00;101383.36;;;-1.90;100.00
46241;BME280;31961;52.416;-0.732;2022-12-07T09:31:28;101386.33;;;-2.00;100.00
46241;BME280;31961;52.416;-0.732;2022-12-07T09:33:56;101388.14;;;-1.99;100.00
46241;BME280;31961;52.416;-0.732;2022-12-07T09:36:24;101385.61;;;-2.06;100.00
46241;BME280;31961;52.416;-0.732;2022-12-07T09:38:51;101385.41;;;-2.25;100.00
46241;BME280;31961;52.416;-0.732;2022-12-07T09:41:19;101380.98;;;-1.59;100.00
46241;BME280;31961;52.416;-0.732;2022-12-07T09:43:46;101377.37;;;-1.67;100.00
46241;BME280;31961;52.416;-0.732;2022-12-07T09:46:15;101383.31;;;-1.57;100.00
46241;BME280;31961;52.416;-0.732;2022-12-07T09:48:43;101382.53;;;-2.31;100.00
46241;BME280;31961;52.416;-0.732;2022-12-07T09:51:15;101380.34;;;-1.61;100.00
46241;BME280;31961;52.416;-0.732;2022-12-07T09:53:44;101384.39;;;-1.27;100.00
46241;BME280;31961;52.416;-0.732;2022-12-07T09:56:13;101385.85;;;-1.42;100.00
46241;BME280;31961;52.416;-0.732;2022-12-07T09:58:42;101381.94;;;-1.95;100.00
46241;BME280;31961;52.416;-0.732;2022-12-07T10:01:12;101380.23;;;-2.42;100.00
46241;BME280;31961;52.416;-0.732;2022-12-07T10:03:42;101381.28;;;-1.54;100.00
46241;BME280;31961;52.416;-0.732;2022-12-07T10:06:12;101379.61;;;-1.39;100.00
46241;BME280;31961;52.416;-0.732;2022-12-07T10:08:39;101377.39;;;-1.20;100.00
46241;BME280;31961;52.416;-0.732;2022-12-07T10:11:07;101373.65;;;-1.20;100.00
46241;BME280;31961;52.416;-0.732;2022-12-07T10:13:36;101373.96;;;-1.70;100.00
46241;BME280;31961;52.416;-0.732;2022-12-07T10:16:05;101368.43;;;-1.14;100.00
46241;BME280;31961;52.416;-0.732;2022-12-07T10:18:34;101366.40;;;-0.78;100.00
46241;BME280;31961;52.416;-0.732;2022-12-07T10:21:06;101369.30;;;-1.26;100.00
46241;BME280;31961;52.416;-0.732;2022-12-07T10:23:38;101370.08;;;-1.49;100.00
46241;BME280;31961;52.416;-0.732;2022-12-07T10:26:28;101368.20;;;-1.46;100.00
46241;BME280;31961;52.416;-0.732;2022-12-07T10:28:59;101368.19;;;-1.52;100.00
46241;BME280;31961;52.416;-0.732;2022-12-07T10:31:27;101372.46;;;-0.94;100.00
46241;BME280;31961;52.416;-0.732;2022-12-07T10:33:56;101366.14;;;-1.03;100.00
46241;BME280;31961;52.416;-0.732;2022-12-07T10:36:26;101361.65;;;-0.68;100.00
46241;BME280;31961;52.416;-0.732;2022-12-07T10:39:00;101363.96;;;-1.40;100.00
46241;BME280;31961;52.416;-0.732;2022-12-07T10:41:27;101363.06;;;-1.59;100.00
46241;BME280;31961;52.416;-0.732;2022-12-07T10:43:56;101355.57;;;-0.96;100.00
46241;BME280;31961;52.416;-0.732;2022-12-07T10:46:44;101355.59;;;-0.77;100.00
46241;BME280;31961;52.416;-0.732;2022-12-07T10:49:37;101354.37;;;-1.24;100.00
46241;BME280;31961;52.416;-0.732;2022-12-07T10:52:12;101351.38;;;-1.19;100.00
46241;BME280;31961;52.416;-0.732;2022-12-07T10:54:48;101347.86;;;-1.20;100.00
46241;BME280;31961;52.416;-0.732;2022-12-07T10:57:28;101347.99;;;-1.47;100.00
46241;BME280;31961;52.416;-0.732;2022-12-07T11:00:04;101338.49;;;-0.77;100.00
46241;BME280;31961;52.416;-0.732;2022-12-07T11:02:48;101335.13;;;-1.75;100.00
46241;BME280;31961;52.416;-0.732;2022-12-07T11:05:25;101329.70;;;-0.20;100.00
46241;BME280;31961;52.416;-0.732;2022-12-07T11:08:02;101324.16;;;-0.68;100.00
46241;BME280;31961;52.416;-0.732;2022-12-07T11:10:38;101320.78;;;-0.28;100.00
46241;BME280;31961;52.416;-0.732;2022-12-07T11:13:18;101320.50;;;-0.20;100.00
46241;BME280;31961;52.416;-0.732;2022-12-07T11:16:00;101320.26;;;-0.23;100.00
46241;BME280;31961;52.416;-0.732;2022-12-07T11:18:34;101317.38;;;-0.12;100.00
46241;BME280;31961;52.416;-0.732;2022-12-07T11:21:11;101312.49;;;-0.32;100.00
46241;BME280;31961;52.416;-0.732;2022-12-07T11:23:48;101309.75;;;-0.45;100.00
46241;BME280;31961;52.416;-0.732;2022-12-07T11:26:25;101306.70;;;-0.57;100.00
46241;BME280;31961;52.416;-0.732;2022-12-07T11:29:07;101298.08;;;-0.40;100.00
46241;BME280;31961;52.416;-0.732;2022-12-07T11:31:41;101299.38;;;-1.26;100.00
46241;BME280;31961;52.416;-0.732;2022-12-07T11:34:20;101293.07;;;-0.78;100.00
46241;BME280;31961;52.416;-0.732;2022-12-07T11:36:53;101288.05;;;-0.55;100.00
46241;BME280;31961;52.416;-0.732;2022-12-07T11:39:26;101288.86;;;-0.84;100.00
46241;BME280;31961;52.416;-0.732;2022-12-07T11:42:01;101283.04;;;-0.59;100.00
46241;BME280;31961;52.416;-0.732;2022-12-07T11:44:34;101281.64;;;-0.40;100.00
46241;BME280;31961;52.416;-0.732;2022-12-07T11:47:07;101277.71;;;-0.30;100.00
46241;BME280;31961;52.416;-0.732;2022-12-07T11:49:43;101276.82;;;0.17;100.00
46241;BME280;31961;52.416;-0.732;2022-12-07T11:52:20;101271.05;;;0.02;100.00
46241;BME280;31961;52.416;-0.732;2022-12-07T11:54:50;101264.51;;;-0.40;100.00
46241;BME280;31961;52.416;-0.732;2022-12-07T11:57:24;101267.30;;;-0.44;100.00
46241;BME280;31961;52.416;-0.732;2022-12-07T12:00:01;101263.68;;;0.34;100.00
46241;BME280;31961;52.416;-0.732;2022-12-07T12:02:36;101259.44;;;-0.90;100.00
46241;BME280;31961;52.416;-0.732;2022-12-07T12:05:13;101259.50;;;-0.47;100.00
46241;BME280;31961;52.416;-0.732;2022-12-07T12:07:44;101260.52;;;-0.50;100.00
46241;BME280;31961;52.416;-0.732;2022-12-07T12:10:19;101260.78;;;-0.87;100.00
46241;BME280;31961;52.416;-0.732;2022-12-07T12:13:15;101258.06;;;-0.19;100.00
46241;BME280;31961;52.416;-0.732;2022-12-07T12:16:01;101257.21;;;0.16;100.00
46241;BME280;31961;52.416;-0.732;2022-12-07T12:19:03;101245.87;;;-0.00;100.00
46241;BME280;31961;52.416;-0.732;2022-12-07T12:21:38;101245.45;;;0.09;100.00
46241;BME280;31961;52.416;-0.732;2022-12-07T12:24:11;101241.15;;;0.05;100.00
46241;BME280;31961;52.416;-0.732;2022-12-07T12:26:49;101234.08;;;0.51;100.00
46241;BME280;31961;52.416;-0.732;2022-12-07T12:29:23;101230.77;;;0.02;100.00
46241;BME280;31961;52.416;-0.732;2022-12-07T12:32:10;101219.58;;;0.11;100.00
46241;BME280;31961;52.416;-0.732;2022-12-07T12:34:41;101214.67;;;1.41;100.00
46241;BME280;31961;52.416;-0.732;2022-12-07T12:37:40;101215.65;;;0.23;100.00
46241;BME280;31961;52.416;-0.732;2022-12-07T12:40:42;101215.38;;;-0.11;100.00
46241;BME280;31961;52.416;-0.732;2022-12-07T12:43:44;101214.90;;;-0.01;100.00
46241;BME280;31961;52.416;-0.732;2022-12-07T12:46:48;101202.33;;;0.55;100.00